Aviation Digital Data Service (ADDS)

Output produced by METARs form (0348 UTC 25 January 2015)
found at http://aviationweather.gov/adds/metars/
 
KARA 242333Z 2500/2524 27006KT P6SM SKC 
     FM250200 VRB04KT P6SM SCT250 
     FM251400 24010KT P6SM SCT250